Symphony Classica — JG4838 — position and weather

sailwx.info

Track history (hours):
 
Tides and Currents Weather Stations Pressure Air Temp Water Temp Dewpoint Dewpoint Depression Visibility Wind Speed Wind Dir Waves Ship Positions

Symphony Classica

Last reported at 2018-Jun-20 12:14 UTC. Time now 2018-Jun-22 05:43 UTC.
Position N 35°39' E 139°46'.

Length 70 m; draft 2.6 m.

Type: Passenger vessel. MMSI: 431000425.

Date/timePositionNaut miles runAvg speedWind from/ knotsBaromVisibWave heightAir tempDewpointWater temp
2018-Jun-20 12:14N 35°39' E 139°46'1 4.5
2018-Jun-20 12:00N 35°38' E 139°46'510.1
2018-Jun-20 11:30N 35°33' E 139°49'4 7.3
2018-Jun-20 10:59N 35°36' E 139°52'4 7.5
2018-Jun-20 10:27N 35°36' E 139°47'3 0.1
2018-Jun-19 09:05N 35°39' E 139°46'0 1.5
2018-Jun-19 08:59N 35°39' E 139°46'0 0.1
2018-Jun-19 04:48N 35°39' E 139°46'1 3.1
2018-Jun-19 04:29N 35°38' E 139°46'4 9.0
2018-Jun-19 04:00N 35°34' E 139°49'2 4.6
2018-Jun-19 03:29N 35°37' E 139°49'3 7.0
2018-Jun-19 03:00N 35°38' E 139°46'1 0.1
2018-Jun-18 12:15N 35°39' E 139°46'1 3.1
2018-Jun-18 12:00N 35°38' E 139°46'4 8.9
2018-Jun-18 11:31N 35°34' E 139°49'4 7.2
2018-Jun-18 10:59N 35°36' E 139°53'4 8.5
2018-Jun-18 10:30N 35°36' E 139°48'3 0.1
2018-Jun-17 09:04N 35°39' E 139°46'0 4.3
2018-Jun-17 09:00N 35°39' E 139°46'4 7.7
2018-Jun-17 08:29N 35°35' E 139°48'2 2.7
2018-Jun-17 07:54N 35°36' E 139°48'2 6.0
2018-Jun-17 07:30N 35°38' E 139°46'1 0.6
2018-Jun-17 06:38N 35°39' E 139°46'1 4.3
2018-Jun-17 06:29N 35°38' E 139°46'1 0.3
2018-Jun-17 04:47N 35°39' E 139°46'2 6.6
2018-Jun-17 04:30N 35°37' E 139°46'4 7.8
2018-Jun-17 04:01N 35°34' E 139°49'3 5.0
2018-Jun-17 03:25N 35°37' E 139°48'2 5.6
2018-Jun-17 03:00N 35°38' E 139°46'0 0.0
2018-Jun-16 12:15N 35°39' E 139°46'1 3.9
2018-Jun-16 11:59N 35°38' E 139°46'3 5.1
2018-Jun-16 11:28N 35°35' E 139°47'3 6.6
2018-Jun-16 11:00N 35°35' E 139°51'3 6.5
2018-Jun-16 10:30N 35°36' E 139°47'3 2.3
2018-Jun-16 09:07N 35°39' E 139°46'1 4.3
2018-Jun-16 08:59N 35°38' E 139°46'4 7.4
2018-Jun-16 08:30N 35°35' E 139°47'2 4.7
2018-Jun-16 08:00N 35°36' E 139°50'3 4.9
2018-Jun-16 07:25N 35°36' E 139°47'2 0.9
2018-Jun-16 04:41N 35°39' E 139°46'1 3.9
2018-Jun-16 04:29N 35°38' E 139°46'4 8.4
2018-Jun-16 03:59N 35°34' E 139°49'2 5.2
2018-Jun-16 03:30N 35°37' E 139°49'3 0.1
2018-Jun-15 04:45N 35°39' E 139°46'1 5.0
2018-Jun-15 04:30N 35°37' E 139°46'5 9.6
2018-Jun-15 04:00N 35°34' E 139°49'3 5.7
2018-Jun-15 03:26N 35°37' E 139°48'3 0.1
2018-Jun-14 04:45N 35°39' E 139°46'2 5.4
2018-Jun-14 04:26N 35°37' E 139°46'410.6
2018-Jun-14 04:00N 35°34' E 139°50'3 4.9
2018-Jun-14 03:21N 35°36' E 139°48'2 6.9
2018-Jun-14 03:00N 35°38' E 139°46'1 0.0
2018-Jun-13 12:24N 35°39' E 139°46'1 2.4
2018-Jun-13 12:00N 35°38' E 139°46'3 6.3
2018-Jun-13 11:30N 35°35' E 139°48'3 6.3
2018-Jun-13 10:58N 35°36' E 139°52'3 7.3
2018-Jun-13 10:31N 35°37' E 139°48'3 0.7
2018-Jun-13 06:14N 35°39' E 139°46'0 0.0
2018-Jun-13 05:56N 35°39' E 139°46'0 0.0
2018-Jun-13 05:20N 35°39' E 139°46'0 0.7
2018-Jun-13 04:44N 35°39' E 139°46'1 2.7
2018-Jun-13 04:30N 35°38' E 139°46'510.5
2018-Jun-13 04:00N 35°34' E 139°50'3 5.5
2018-Jun-13 03:26N 35°37' E 139°48'3 4.7
2018-Jun-13 02:49N 35°39' E 139°46'0 0.0
2018-Jun-13 02:25N 35°39' E 139°46'1 0.0
2018-Jun-12 09:05N 35°39' E 139°46'0 2.1
2018-Jun-12 09:00N 35°39' E 139°46'3 5.6
2018-Jun-12 08:30N 35°36' E 139°47'2 4.5
2018-Jun-12 07:59N 35°37' E 139°50'4 1.5
2018-Jun-12 05:14N 35°39' E 139°46'0 0.0
2018-Jun-12 04:54N 35°39' E 139°46'1 1.9
2018-Jun-12 04:30N 35°38' E 139°46'4 8.4
2018-Jun-12 04:00N 35°35' E 139°48'2 4.8
2018-Jun-12 03:30N 35°37' E 139°49'3 6.7
2018-Jun-12 03:00N 35°38' E 139°46'  
Track history (hours):
 
Tides and Currents Weather Stations Pressure Air Temp Water Temp Dewpoint Dewpoint Depression Visibility Wind Speed Wind Dir Waves Ship Positions

Symphony Classica

Last reported at 2018-Jun-20 12:14 UTC. Time now 2018-Jun-22 05:43 UTC.
Position N 35°39' E 139°46'.

Length 70 m; draft 2.6 m.

Type: Passenger vessel. MMSI: 431000425.

Date/timePositionNaut miles runAvg speedWind from/ knotsBaromVisibWave heightAir tempDewpointWater temp
2018-Jun-20 12:14N 35°39' E 139°46'1 4.5
2018-Jun-20 12:00N 35°38' E 139°46'510.1
2018-Jun-20 11:30N 35°33' E 139°49'4 7.3
2018-Jun-20 10:59N 35°36' E 139°52'4 7.5
2018-Jun-20 10:27N 35°36' E 139°47'3 0.1
2018-Jun-19 09:05N 35°39' E 139°46'0 1.5
2018-Jun-19 08:59N 35°39' E 139°46'0 0.1
2018-Jun-19 04:48N 35°39' E 139°46'1 3.1
2018-Jun-19 04:29N 35°38' E 139°46'4 9.0
2018-Jun-19 04:00N 35°34' E 139°49'2 4.6
2018-Jun-19 03:29N 35°37' E 139°49'3 7.0
2018-Jun-19 03:00N 35°38' E 139°46'1 0.1
2018-Jun-18 12:15N 35°39' E 139°46'1 3.1
2018-Jun-18 12:00N 35°38' E 139°46'4 8.9
2018-Jun-18 11:31N 35°34' E 139°49'4 7.2
2018-Jun-18 10:59N 35°36' E 139°53'4 8.5
2018-Jun-18 10:30N 35°36' E 139°48'3 0.1
2018-Jun-17 09:04N 35°39' E 139°46'0 4.3
2018-Jun-17 09:00N 35°39' E 139°46'4 7.7
2018-Jun-17 08:29N 35°35' E 139°48'2 2.7
2018-Jun-17 07:54N 35°36' E 139°48'2 6.0
2018-Jun-17 07:30N 35°38' E 139°46'1 0.6
2018-Jun-17 06:38N 35°39' E 139°46'1 4.3
2018-Jun-17 06:29N 35°38' E 139°46'1 0.3
2018-Jun-17 04:47N 35°39' E 139°46'2 6.6
2018-Jun-17 04:30N 35°37' E 139°46'4 7.8
2018-Jun-17 04:01N 35°34' E 139°49'3 5.0
2018-Jun-17 03:25N 35°37' E 139°48'2 5.6
2018-Jun-17 03:00N 35°38' E 139°46'0 0.0
2018-Jun-16 12:15N 35°39' E 139°46'1 3.9
2018-Jun-16 11:59N 35°38' E 139°46'3 5.1
2018-Jun-16 11:28N 35°35' E 139°47'3 6.6
2018-Jun-16 11:00N 35°35' E 139°51'3 6.5
2018-Jun-16 10:30N 35°36' E 139°47'3 2.3
2018-Jun-16 09:07N 35°39' E 139°46'1 4.3
2018-Jun-16 08:59N 35°38' E 139°46'4 7.4
2018-Jun-16 08:30N 35°35' E 139°47'2 4.7
2018-Jun-16 08:00N 35°36' E 139°50'3 4.9
2018-Jun-16 07:25N 35°36' E 139°47'2 0.9
2018-Jun-16 04:41N 35°39' E 139°46'1 3.9
2018-Jun-16 04:29N 35°38' E 139°46'4 8.4
2018-Jun-16 03:59N 35°34' E 139°49'2 5.2
2018-Jun-16 03:30N 35°37' E 139°49'3 0.1
2018-Jun-15 04:45N 35°39' E 139°46'1 5.0
2018-Jun-15 04:30N 35°37' E 139°46'5 9.6
2018-Jun-15 04:00N 35°34' E 139°49'3 5.7
2018-Jun-15 03:26N 35°37' E 139°48'3 0.1
2018-Jun-14 04:45N 35°39' E 139°46'2 5.4
2018-Jun-14 04:26N 35°37' E 139°46'410.6
2018-Jun-14 04:00N 35°34' E 139°50'3 4.9
2018-Jun-14 03:21N 35°36' E 139°48'2 6.9
2018-Jun-14 03:00N 35°38' E 139°46'1 0.0
2018-Jun-13 12:24N 35°39' E 139°46'1 2.4
2018-Jun-13 12:00N 35°38' E 139°46'3 6.3
2018-Jun-13 11:30N 35°35' E 139°48'3 6.3
2018-Jun-13 10:58N 35°36' E 139°52'3 7.3
2018-Jun-13 10:31N 35°37' E 139°48'3 0.7
2018-Jun-13 06:14N 35°39' E 139°46'0 0.0
2018-Jun-13 05:56N 35°39' E 139°46'0 0.0
2018-Jun-13 05:20N 35°39' E 139°46'0 0.7
2018-Jun-13 04:44N 35°39' E 139°46'1 2.7
2018-Jun-13 04:30N 35°38' E 139°46'510.5
2018-Jun-13 04:00N 35°34' E 139°50'3 5.5
2018-Jun-13 03:26N 35°37' E 139°48'3 4.7
2018-Jun-13 02:49N 35°39' E 139°46'0 0.0
2018-Jun-13 02:25N 35°39' E 139°46'1 0.0
2018-Jun-12 09:05N 35°39' E 139°46'0 2.1
2018-Jun-12 09:00N 35°39' E 139°46'3 5.6
2018-Jun-12 08:30N 35°36' E 139°47'2 4.5
2018-Jun-12 07:59N 35°37' E 139°50'4 1.5
2018-Jun-12 05:14N 35°39' E 139°46'0 0.0
2018-Jun-12 04:54N 35°39' E 139°46'1 1.9
2018-Jun-12 04:30N 35°38' E 139°46'4 8.4
2018-Jun-12 04:00N 35°35' E 139°48'2 4.8
2018-Jun-12 03:30N 35°37' E 139°49'3 6.7
2018-Jun-12 03:00N 35°38' E 139°46'  

Dump ship's entire track history